createdAt,value
2019-04-28T00:00:01.446Z,10.71
2019-04-28T00:01:01.133Z,10.68
2019-04-28T00:02:01.325Z,10.64
2019-04-28T00:03:00.751Z,10.68
2019-04-28T00:04:01.344Z,10.67
2019-04-28T00:05:01.544Z,10.70
2019-04-28T00:06:01.159Z,10.67
2019-04-28T00:07:01.803Z,10.70
2019-04-28T00:08:01.156Z,10.63
2019-04-28T00:09:01.692Z,10.67
2019-04-28T00:10:01.088Z,10.70
2019-04-28T00:11:01.808Z,10.61
2019-04-28T00:12:01.753Z,10.63
2019-04-28T00:13:00.993Z,10.59
2019-04-28T00:14:01.728Z,10.71
2019-04-28T00:14:59.899Z,10.66
2019-04-28T00:16:01.646Z,10.63
2019-04-28T00:17:01.077Z,10.60
2019-04-28T00:18:01.569Z,10.68
2019-04-28T00:19:01.100Z,10.64
2019-04-28T00:20:01.319Z,10.66
2019-04-28T00:21:00.935Z,10.66
2019-04-28T00:22:01.019Z,10.67
2019-04-28T00:23:01.400Z,10.60
2019-04-28T00:24:01.644Z,10.64
2019-04-28T00:25:01.577Z,10.70
2019-04-28T00:26:01.496Z,10.64
2019-04-28T00:27:01.664Z,10.64
2019-04-28T00:28:01.545Z,10.55
2019-04-28T00:29:01.269Z,10.60
2019-04-28T00:30:01.944Z,10.59
2019-04-28T00:30:59.730Z,10.56
2019-04-28T00:32:01.179Z,10.64
2019-04-28T00:33:01.702Z,10.41
2019-04-28T00:34:01.268Z,10.42
2019-04-28T00:34:59.683Z,10.40
2019-04-28T00:36:01.491Z,10.38
2019-04-28T00:37:01.295Z,10.38
2019-04-28T00:38:01.425Z,10.36
2019-04-28T00:39:01.381Z,10.32
2019-04-28T00:40:00.997Z,10.32
2019-04-28T00:40:59.618Z,10.33
2019-04-28T00:42:03.036Z,10.17
2019-04-28T00:43:00.890Z,10.09
2019-04-28T00:43:59.588Z,10.11
2019-04-28T00:45:01.437Z,10.11
2019-04-28T00:46:00.953Z,10.08
2019-04-28T00:47:01.133Z,10.12
2019-04-28T00:48:01.023Z,10.07
2019-04-28T00:48:59.536Z,10.02
2019-04-28T00:49:59.527Z,10.04
2019-04-28T00:51:01.673Z,10.01
2019-04-28T00:52:00.663Z,10.02
2019-04-28T00:52:59.490Z,9.99
2019-04-28T00:54:00.813Z,9.94
2019-04-28T00:55:01.196Z,9.94
2019-04-28T00:55:59.456Z,9.96
2019-04-28T00:56:59.447Z,9.93
2019-04-28T00:58:00.875Z,9.76
2019-04-28T00:58:59.425Z,9.83
2019-04-28T00:59:59.412Z,9.81
2019-04-28T01:01:01.303Z,9.79
2019-04-28T01:02:01.136Z,9.78
2019-04-28T01:02:59.380Z,9.78
2019-04-28T01:03:59.369Z,9.76
2019-04-28T01:05:01.271Z,9.75
2019-04-28T01:05:59.349Z,9.75
2019-04-28T01:06:59.339Z,9.79
2019-04-28T01:08:01.009Z,9.76
2019-04-28T01:08:59.316Z,9.76
2019-04-28T01:10:01.275Z,9.87
2019-04-28T01:10:59.296Z,9.86
2019-04-28T01:12:01.676Z,9.93
2019-04-28T01:12:59.276Z,9.89
2019-04-28T01:13:59.262Z,9.91
2019-04-28T01:15:00.232Z,9.97
2019-04-28T01:15:59.456Z,9.94
2019-04-28T01:16:59.858Z,10.05
2019-04-28T01:18:00.736Z,10.02
2019-04-28T01:19:00.102Z,10.02
2019-04-28T01:19:59.757Z,10.14
2019-04-28T01:20:59.753Z,10.14
2019-04-28T01:22:00.346Z,10.14
2019-04-28T01:23:00.439Z,10.23
2019-04-28T01:23:59.815Z,10.32
2019-04-28T01:24:59.605Z,10.20
2019-04-28T01:26:00.073Z,10.36
2019-04-28T01:27:00.471Z,10.34
2019-04-28T01:28:00.191Z,10.34
2019-04-28T01:28:59.665Z,10.41
2019-04-28T01:30:06.209Z,10.44
2019-04-28T01:31:00.081Z,10.47
2019-04-28T01:32:00.398Z,10.45
2019-04-28T01:32:59.670Z,10.59
2019-04-28T01:34:00.103Z,10.60
2019-04-28T01:34:59.829Z,10.59
2019-04-28T01:36:00.455Z,10.56
2019-04-28T01:36:59.847Z,10.67
2019-04-28T01:38:00.128Z,10.66
2019-04-28T01:38:59.985Z,10.66
2019-04-28T01:39:59.708Z,10.73
2019-04-28T01:40:59.961Z,10.67
2019-04-28T01:41:59.545Z,10.66
2019-04-28T01:42:59.783Z,10.76
2019-04-28T01:44:00.158Z,10.78
2019-04-28T01:45:00.613Z,10.82
2019-04-28T01:46:00.176Z,10.71
2019-04-28T01:47:00.941Z,10.73
2019-04-28T01:48:00.537Z,10.78
2019-04-28T01:48:59.916Z,10.73
2019-04-28T01:50:00.210Z,10.84
2019-04-28T01:50:59.784Z,10.74
2019-04-28T01:52:00.824Z,10.73
2019-04-28T01:52:59.791Z,10.71
2019-04-28T01:54:00.182Z,10.76
2019-04-28T01:55:00.458Z,10.76
2019-04-28T01:55:59.550Z,10.79
2019-04-28T01:57:01.124Z,10.70
2019-04-28T01:57:59.651Z,10.85
2019-04-28T01:59:00.292Z,10.74
2019-04-28T01:59:59.802Z,10.67
2019-04-28T02:00:59.546Z,10.66
2019-04-28T02:02:00.100Z,10.68
2019-04-28T02:03:00.412Z,10.68
2019-04-28T02:04:00.246Z,10.74
2019-04-28T02:04:59.856Z,10.68
2019-04-28T02:06:00.160Z,10.81
2019-04-28T02:06:59.897Z,10.66
2019-04-28T02:08:00.293Z,10.74
2019-04-28T02:09:00.709Z,10.71
2019-04-28T02:10:00.534Z,10.76
2019-04-28T02:11:00.124Z,10.74
2019-04-28T02:12:00.679Z,10.68
2019-04-28T02:12:59.898Z,10.67
2019-04-28T02:13:59.737Z,10.66
2019-04-28T02:15:00.632Z,10.61
2019-04-28T02:16:00.052Z,10.60
2019-04-28T02:17:00.368Z,10.52
2019-04-28T02:18:00.090Z,10.48
2019-04-28T02:18:59.707Z,10.47
2019-04-28T02:20:00.441Z,10.47
2019-04-28T02:20:59.594Z,10.51
2019-04-28T02:21:59.473Z,10.48
2019-04-28T02:22:59.879Z,10.41
2019-04-28T02:23:59.928Z,10.48
2019-04-28T02:25:00.235Z,10.38
2019-04-28T02:25:59.746Z,10.42
2019-04-28T02:27:00.634Z,10.36
2019-04-28T02:27:59.593Z,10.33
2019-04-28T02:29:00.227Z,10.25
2019-04-28T02:30:00.190Z,10.29
2019-04-28T02:30:58.434Z,10.30
2019-04-28T02:32:01.732Z,10.25
2019-04-28T02:33:01.335Z,10.25
2019-04-28T02:34:00.749Z,10.23
2019-04-28T02:35:01.179Z,10.09
2019-04-28T02:36:01.208Z,10.11
2019-04-28T02:37:01.516Z,10.12
2019-04-28T02:38:00.037Z,10.17
2019-04-28T02:39:00.641Z,10.02
2019-04-28T02:40:00.673Z,10.18
2019-04-28T02:41:00.172Z,10.11
2019-04-28T02:42:00.986Z,10.05
2019-04-28T02:42:58.306Z,10.01
2019-04-28T02:44:00.695Z,10.01
2019-04-28T02:45:00.498Z,9.91
2019-04-28T02:46:00.536Z,9.90
2019-04-28T02:47:00.703Z,9.90
2019-04-28T02:48:00.782Z,9.84
2019-04-28T02:49:00.804Z,9.86
2019-04-28T02:50:00.948Z,9.78
2019-04-28T02:51:01.040Z,9.79
2019-04-28T02:51:59.992Z,9.74
2019-04-28T02:52:58.199Z,9.79
2019-04-28T02:54:00.461Z,9.78
2019-04-28T02:54:59.545Z,9.79
2019-04-28T02:55:58.163Z,9.66
2019-04-28T02:57:01.067Z,9.75
2019-04-28T02:57:58.142Z,9.72
2019-04-28T02:59:00.837Z,9.76
2019-04-28T03:00:00.512Z,9.68
2019-04-28T03:01:08.975Z,9.72
2019-04-28T03:02:00.682Z,9.74
2019-04-28T03:02:58.096Z,9.68
2019-04-28T03:04:00.152Z,9.68
2019-04-28T03:05:00.324Z,9.69
2019-04-28T03:06:01.124Z,9.69
2019-04-28T03:06:58.047Z,9.61
2019-04-28T03:07:58.042Z,9.68
2019-04-28T03:09:00.289Z,9.69
2019-04-28T03:09:58.013Z,9.66
2019-04-28T03:11:00.635Z,9.64
2019-04-28T03:11:57.993Z,9.66
2019-04-28T03:13:00.802Z,9.57
2019-04-28T03:14:00.772Z,9.61
2019-04-28T03:15:00.330Z,9.57
2019-04-28T03:15:57.952Z,9.54
2019-04-28T03:17:00.659Z,9.57
2019-04-28T03:17:57.930Z,9.68
2019-04-28T03:18:57.925Z,9.54
2019-04-28T03:20:00.738Z,9.56
2019-04-28T03:20:57.895Z,9.51
2019-04-28T03:21:57.883Z,9.56
2019-04-28T03:23:00.335Z,9.61
2019-04-28T03:23:57.861Z,9.54
2019-04-28T03:24:57.849Z,9.56
2019-04-28T03:25:57.840Z,9.60
2019-04-28T03:27:00.574Z,9.50
2019-04-28T03:28:00.598Z,9.47
2019-04-28T03:28:57.809Z,9.50
2019-04-28T03:30:00.503Z,9.50
2019-04-28T03:30:57.801Z,9.50
2019-04-28T03:32:18.223Z,9.51
2019-04-28T03:33:04.660Z,9.50
2019-04-28T03:34:03.387Z,9.36
2019-04-28T03:35:03.091Z,9.36
2019-04-28T03:36:07.074Z,9.35
2019-04-28T03:37:00.327Z,9.43
2019-04-28T03:37:57.711Z,9.39
2019-04-28T03:38:57.700Z,9.43
2019-04-28T03:40:00.294Z,9.38
2019-04-28T03:40:57.690Z,9.40
2019-04-28T03:42:00.063Z,9.33
2019-04-28T03:43:00.245Z,9.42
2019-04-28T03:44:00.476Z,9.36
2019-04-28T03:44:57.634Z,9.39
2019-04-28T03:46:02.773Z,9.43
2019-04-28T03:47:00.731Z,9.42
2019-04-28T03:48:00.209Z,9.43
2019-04-28T03:48:57.591Z,9.40
2019-04-28T03:49:59.950Z,9.36
2019-04-28T03:50:57.569Z,9.39
2019-04-28T03:51:57.561Z,9.35
2019-04-28T03:52:57.549Z,9.40
2019-04-28T03:53:57.540Z,9.39
2019-04-28T03:54:57.525Z,9.28
2019-04-28T03:55:57.515Z,9.31
2019-04-28T03:56:57.505Z,9.26
2019-04-28T03:57:57.495Z,9.26
2019-04-28T03:59:00.312Z,9.23
2019-04-28T03:59:57.472Z,9.26
2019-04-28T04:01:02.695Z,9.23
2019-04-28T04:02:00.782Z,9.17
2019-04-28T04:02:57.442Z,9.20
2019-04-28T04:03:57.428Z,9.17
2019-04-28T04:04:57.418Z,9.23
2019-04-28T04:05:57.412Z,9.17
2019-04-28T04:06:57.399Z,9.18
2019-04-28T04:07:57.386Z,9.15
2019-04-28T04:09:00.152Z,9.14
2019-04-28T04:09:57.363Z,9.08
2019-04-28T04:10:57.352Z,9.14
2019-04-28T04:11:57.343Z,9.10
2019-04-28T04:12:57.331Z,9.10
2019-04-28T04:13:57.320Z,9.14
2019-04-28T04:14:57.309Z,9.08
2019-04-28T04:15:57.298Z,9.15
2019-04-28T04:16:57.294Z,9.11
2019-04-28T04:17:57.278Z,9.11
2019-04-28T04:18:57.266Z,9.05
2019-04-28T04:19:57.256Z,9.10
2019-04-28T04:20:57.248Z,9.08
2019-04-28T04:21:57.235Z,9.08
2019-04-28T04:22:57.224Z,9.10
2019-04-28T04:23:57.212Z,9.08
2019-04-28T04:24:57.204Z,9.05
2019-04-28T04:25:57.192Z,9.02
2019-04-28T04:26:57.190Z,8.91
2019-04-28T04:27:57.179Z,9.05
2019-04-28T04:28:57.159Z,9.02
2019-04-28T04:29:57.157Z,9.02
2019-04-28T04:30:57.137Z,9.05
2019-04-28T04:32:10.256Z,9.01
2019-04-28T04:33:00.884Z,9.04
2019-04-28T04:33:57.105Z,8.95
2019-04-28T04:34:57.093Z,8.95
2019-04-28T04:35:57.084Z,8.99
2019-04-28T04:36:57.071Z,8.98
2019-04-28T04:37:57.068Z,9.01
2019-04-28T04:38:57.050Z,8.99
2019-04-28T04:39:57.046Z,8.95
2019-04-28T04:40:57.029Z,8.95
2019-04-28T04:41:57.018Z,8.96
2019-04-28T04:42:57.007Z,8.99
2019-04-28T04:43:57.001Z,9.01
2019-04-28T04:44:56.994Z,8.99
2019-04-28T04:45:56.974Z,8.92
2019-04-28T04:46:56.967Z,8.99
2019-04-28T04:47:56.954Z,8.98
2019-04-28T04:48:56.942Z,8.99
2019-04-28T04:49:56.930Z,8.96
2019-04-28T04:50:56.919Z,8.99
2019-04-28T04:51:56.911Z,8.96
2019-04-28T04:52:56.898Z,8.99
2019-04-28T04:53:56.888Z,8.95
2019-04-28T04:54:56.883Z,9.01
2019-04-28T04:55:56.867Z,9.10
2019-04-28T04:56:56.856Z,8.96
2019-04-28T04:57:56.844Z,8.99
2019-04-28T04:58:56.833Z,8.98
2019-04-28T04:59:56.822Z,8.96
2019-04-28T05:00:56.816Z,9.05
2019-04-28T05:01:56.811Z,8.96
2019-04-28T05:02:56.789Z,8.99
2019-04-28T05:03:56.779Z,8.99
2019-04-28T05:04:56.768Z,9.05
2019-04-28T05:05:56.757Z,9.08
2019-04-28T05:06:56.746Z,9.08
2019-04-28T05:07:56.736Z,9.08
2019-04-28T05:08:56.725Z,9.02
2019-04-28T05:09:56.714Z,9.11
2019-04-28T05:10:56.706Z,9.02
2019-04-28T05:11:56.693Z,9.05
2019-04-28T05:12:56.683Z,9.05
2019-04-28T05:13:56.671Z,9.05
2019-04-28T05:14:56.660Z,9.08
2019-04-28T05:15:56.650Z,9.13
2019-04-28T05:16:56.638Z,9.13
2019-04-28T05:17:56.628Z,9.10
2019-04-28T05:18:56.616Z,9.05
2019-04-28T05:19:56.607Z,8.96
2019-04-28T05:20:56.595Z,9.10
2019-04-28T05:21:56.585Z,9.04
2019-04-28T05:22:56.576Z,9.02
2019-04-28T05:23:56.564Z,9.01
2019-04-28T05:24:56.552Z,8.96
2019-04-28T05:25:56.540Z,8.98
2019-04-28T05:26:56.532Z,8.99
2019-04-28T05:27:59.355Z,8.99
2019-04-28T05:28:59.188Z,8.95
2019-04-28T05:29:56.730Z,8.99
2019-04-28T05:30:56.486Z,8.98
2019-04-28T05:31:59.822Z,8.91
2019-04-28T05:32:57.546Z,8.87
2019-04-28T05:33:56.455Z,9.02
2019-04-28T05:34:56.443Z,8.98
2019-04-28T05:36:01.069Z,9.11
2019-04-28T05:36:57.420Z,9.08
2019-04-28T05:37:56.414Z,9.11
2019-04-28T05:38:56.404Z,9.02
2019-04-28T05:39:56.391Z,9.11
2019-04-28T05:40:56.379Z,9.14
2019-04-28T05:41:56.369Z,9.11
2019-04-28T05:42:56.360Z,9.05
2019-04-28T05:43:56.347Z,9.05
2019-04-28T05:44:56.339Z,9.05
2019-04-28T05:45:56.325Z,9.04
2019-04-28T05:46:56.318Z,9.13
2019-04-28T05:47:56.304Z,9.11
2019-04-28T05:48:56.295Z,9.05
2019-04-28T05:49:56.285Z,9.04
2019-04-28T05:50:56.272Z,9.10
2019-04-28T05:51:56.264Z,9.05
2019-04-28T05:52:56.251Z,9.01
2019-04-28T05:53:56.240Z,9.10
2019-04-28T05:54:56.228Z,9.14
2019-04-28T05:55:56.218Z,9.10
2019-04-28T05:56:56.207Z,9.02
2019-04-28T05:57:56.197Z,9.05
2019-04-28T05:58:56.187Z,9.08
2019-04-28T05:59:56.176Z,9.08
2019-04-28T06:00:56.165Z,9.01
2019-04-28T06:01:56.155Z,9.05
2019-04-28T06:02:56.844Z,9.05
2019-04-28T06:03:56.131Z,9.02
2019-04-28T06:04:56.126Z,8.96
2019-04-28T06:05:57.098Z,9.10
2019-04-28T06:06:56.100Z,9.08
2019-04-28T06:07:56.089Z,9.14
2019-04-28T06:08:56.087Z,9.10
2019-04-28T06:09:56.066Z,9.20
2019-04-28T06:10:56.056Z,9.24
2019-04-28T06:11:56.094Z,9.18
2019-04-28T06:12:56.035Z,9.20
2019-04-28T06:13:56.029Z,9.20
2019-04-28T06:14:56.017Z,9.26
2019-04-28T06:15:56.004Z,9.18
2019-04-28T06:16:55.992Z,9.18
2019-04-28T06:17:55.981Z,9.13
2019-04-28T06:18:55.970Z,9.15
2019-04-28T06:19:55.965Z,9.24
2019-04-28T06:20:55.952Z,9.23
2019-04-28T06:21:55.943Z,9.18
2019-04-28T06:22:55.931Z,9.20
2019-04-28T06:23:55.918Z,9.14
2019-04-28T06:24:55.911Z,9.21
2019-04-28T06:25:55.903Z,9.23
2019-04-28T06:26:55.890Z,9.17
2019-04-28T06:27:55.873Z,9.18
2019-04-28T06:28:55.863Z,9.23
2019-04-28T06:29:55.858Z,9.29
2019-04-28T06:30:55.841Z,9.31
2019-04-28T06:31:55.830Z,9.18
2019-04-28T06:33:07.179Z,9.33
2019-04-28T06:33:56.808Z,9.29
2019-04-28T06:34:55.798Z,9.24
2019-04-28T06:35:55.789Z,9.26
2019-04-28T06:36:55.776Z,9.21
2019-04-28T06:37:55.766Z,9.21
2019-04-28T06:38:55.765Z,9.33
2019-04-28T06:39:55.746Z,9.24
2019-04-28T06:40:55.735Z,9.29
2019-04-28T06:41:55.724Z,9.29
2019-04-28T06:42:55.712Z,9.26
2019-04-28T06:43:55.703Z,9.38
2019-04-28T06:44:55.694Z,9.39
2019-04-28T06:45:55.679Z,9.32
2019-04-28T06:46:55.669Z,9.36
2019-04-28T06:47:55.661Z,9.28
2019-04-28T06:48:55.651Z,9.39
2019-04-28T06:49:55.636Z,9.28
2019-04-28T06:50:55.627Z,9.29
2019-04-28T06:51:55.617Z,9.31
2019-04-28T06:52:55.605Z,9.33
2019-04-28T06:53:55.593Z,9.32
2019-04-28T06:54:55.585Z,9.26
2019-04-28T06:55:55.573Z,9.26
2019-04-28T06:56:55.563Z,9.29
2019-04-28T06:57:55.552Z,9.24
2019-04-28T06:58:59.271Z,9.31
2019-04-28T06:59:55.534Z,9.36
2019-04-28T07:00:55.519Z,9.36
2019-04-28T07:01:55.513Z,9.35
2019-04-28T07:02:55.499Z,9.36
2019-04-28T07:03:55.485Z,9.42
2019-04-28T07:05:01.697Z,9.66
2019-04-28T07:05:56.463Z,9.57
2019-04-28T07:06:55.454Z,9.71
2019-04-28T07:07:55.451Z,9.76
2019-04-28T07:08:55.434Z,9.90
2019-04-28T07:09:55.421Z,9.89
2019-04-28T07:10:55.412Z,10.09
2019-04-28T07:11:55.399Z,10.09
2019-04-28T07:12:55.397Z,10.14
2019-04-28T07:13:55.396Z,10.27
2019-04-28T07:14:55.370Z,10.30
2019-04-28T07:15:55.360Z,10.48
2019-04-28T07:16:55.348Z,10.56
2019-04-28T07:17:55.334Z,10.64
2019-04-28T07:18:55.325Z,10.60
2019-04-28T07:19:55.312Z,10.61
2019-04-28T07:20:55.304Z,10.38
2019-04-28T07:21:55.291Z,10.23
2019-04-28T07:22:55.281Z,10.23
2019-04-28T07:23:55.272Z,10.25
2019-04-28T07:24:55.260Z,10.27
2019-04-28T07:25:55.249Z,10.26
2019-04-28T07:26:55.237Z,10.25
2019-04-28T07:27:55.228Z,10.27
2019-04-28T07:28:55.217Z,10.11
2019-04-28T07:29:55.208Z,10.09
2019-04-28T07:30:55.195Z,10.04
2019-04-28T07:31:55.187Z,10.08
2019-04-28T07:32:55.174Z,10.15
2019-04-28T07:33:55.163Z,10.29
2019-04-28T07:34:55.150Z,10.41
2019-04-28T07:35:55.144Z,10.42
2019-04-28T07:36:55.133Z,10.47
2019-04-28T07:37:55.126Z,10.44
2019-04-28T07:38:55.108Z,10.42
2019-04-28T07:39:56.758Z,10.30
2019-04-28T07:40:55.088Z,10.32
2019-04-28T07:41:55.095Z,10.15
2019-04-28T07:42:55.071Z,10.20
2019-04-28T07:43:55.056Z,10.12
2019-04-28T07:44:55.044Z,10.25
2019-04-28T07:45:55.032Z,10.01
2019-04-28T07:46:55.026Z,10.05
2019-04-28T07:47:55.011Z,10.08
2019-04-28T07:48:55.002Z,10.14
2019-04-28T07:49:54.993Z,10.07
2019-04-28T07:50:54.981Z,10.22
2019-04-28T07:51:54.969Z,10.11
2019-04-28T07:52:54.957Z,10.05
2019-04-28T07:53:54.952Z,10.02
2019-04-28T07:54:54.939Z,10.05
2019-04-28T07:55:54.926Z,10.05
2019-04-28T07:56:54.917Z,10.17
2019-04-28T07:57:54.903Z,10.09
2019-04-28T07:58:54.893Z,10.12
2019-04-28T07:59:54.882Z,10.05
2019-04-28T08:00:54.875Z,10.23
2019-04-28T08:01:54.862Z,10.34
2019-04-28T08:02:54.851Z,10.45
2019-04-28T08:03:57.429Z,10.60
2019-04-28T08:04:54.828Z,10.61
2019-04-28T08:05:54.877Z,10.45
2019-04-28T08:06:54.810Z,10.48
2019-04-28T08:07:54.799Z,10.33
2019-04-28T08:08:54.786Z,10.30
2019-04-28T08:09:54.774Z,10.40
2019-04-28T08:10:54.765Z,10.32
2019-04-28T08:11:54.760Z,10.20
2019-04-28T08:12:54.746Z,10.26
2019-04-28T08:13:54.736Z,10.17
2019-04-28T08:14:54.721Z,10.18
2019-04-28T08:15:54.710Z,10.25
2019-04-28T08:16:54.699Z,10.17
2019-04-28T08:17:54.694Z,10.04
2019-04-28T08:18:54.684Z,9.99
2019-04-28T08:19:54.669Z,10.01
2019-04-28T08:20:54.659Z,9.87
2019-04-28T08:21:54.647Z,9.76
2019-04-28T08:22:54.638Z,9.78
2019-04-28T08:23:54.631Z,9.86
2019-04-28T08:24:54.615Z,9.74
2019-04-28T08:25:54.607Z,9.64
2019-04-28T08:26:54.592Z,9.64
2019-04-28T08:27:54.583Z,9.69
2019-04-28T08:28:54.585Z,9.81
2019-04-28T08:29:58.648Z,9.99
2019-04-28T08:30:54.600Z,9.89
2019-04-28T08:31:54.545Z,9.91
2019-04-28T08:32:54.528Z,9.83
2019-04-28T08:34:02.174Z,9.91
2019-04-28T08:34:55.515Z,10.02
2019-04-28T08:35:54.496Z,9.90
2019-04-28T08:36:54.485Z,10.11
2019-04-28T08:37:54.478Z,10.34
2019-04-28T08:38:54.514Z,10.42
2019-04-28T08:39:54.455Z,10.63
2019-04-28T08:40:54.446Z,10.66
2019-04-28T08:41:54.431Z,10.67
2019-04-28T08:42:54.422Z,10.67
2019-04-28T08:43:54.408Z,10.71
2019-04-28T08:44:54.402Z,10.70
2019-04-28T08:45:54.388Z,10.81
2019-04-28T08:46:54.375Z,10.76
2019-04-28T08:47:54.365Z,10.67
2019-04-28T08:48:54.401Z,10.63
2019-04-28T08:49:54.349Z,10.74
2019-04-28T08:50:54.332Z,10.73
2019-04-28T08:51:54.321Z,10.56
2019-04-28T08:52:54.317Z,10.55
2019-04-28T08:53:54.306Z,10.60
2019-04-28T08:54:54.289Z,10.60
2019-04-28T08:55:54.286Z,10.55
2019-04-28T08:56:54.269Z,10.74
2019-04-28T08:57:54.279Z,10.70
2019-04-28T08:58:54.247Z,10.76
2019-04-28T08:59:54.239Z,10.73
2019-04-28T09:00:54.227Z,10.91
2019-04-28T09:01:54.215Z,11.03
2019-04-28T09:02:54.204Z,11.18
2019-04-28T09:03:54.198Z,11.18
2019-04-28T09:04:54.183Z,11.06
2019-04-28T09:05:54.172Z,11.11
2019-04-28T09:06:54.160Z,11.42
2019-04-28T09:07:54.160Z,11.46
2019-04-28T09:08:54.145Z,11.37
2019-04-28T09:09:54.127Z,11.43
2019-04-28T09:10:54.124Z,11.36
2019-04-28T09:11:54.130Z,11.42
2019-04-28T09:12:54.107Z,11.42
2019-04-28T09:13:54.086Z,11.78
2019-04-28T09:14:54.072Z,12.01
2019-04-28T09:15:54.063Z,12.21
2019-04-28T09:16:54.137Z,12.49
2019-04-28T09:17:54.042Z,12.46
2019-04-28T09:18:54.033Z,12.31
2019-04-28T09:19:54.019Z,12.17
2019-04-28T09:20:54.013Z,12.19
2019-04-28T09:21:54.015Z,12.20
2019-04-28T09:22:53.989Z,12.19
2019-04-28T09:23:53.978Z,12.23
2019-04-28T09:24:53.967Z,12.16
2019-04-28T09:25:53.959Z,12.07
2019-04-28T09:26:54.001Z,11.99
2019-04-28T09:27:53.938Z,11.99
2019-04-28T09:28:53.926Z,11.90
2019-04-28T09:29:53.915Z,11.73
2019-04-28T09:30:53.903Z,11.61
2019-04-28T09:31:53.889Z,11.51
2019-04-28T09:32:53.881Z,11.46
2019-04-28T09:33:53.868Z,11.58
2019-04-28T09:34:53.861Z,11.54
2019-04-28T09:35:53.852Z,11.49
2019-04-28T09:36:53.835Z,11.55
2019-04-28T09:37:53.829Z,11.67
2019-04-28T09:38:53.813Z,11.67
2019-04-28T09:39:53.805Z,11.70
2019-04-28T09:40:53.791Z,11.67
2019-04-28T09:41:53.782Z,11.70
2019-04-28T09:42:53.770Z,11.62
2019-04-28T09:43:53.759Z,11.76
2019-04-28T09:44:53.747Z,11.96
2019-04-28T09:45:53.740Z,12.07
2019-04-28T09:46:53.726Z,12.34
2019-04-28T09:47:53.715Z,12.54
2019-04-28T09:48:53.703Z,12.87
2019-04-28T09:49:53.694Z,13.00
2019-04-28T09:50:53.687Z,13.28
2019-04-28T09:51:53.672Z,13.25
2019-04-28T09:52:53.660Z,13.54
2019-04-28T09:53:53.651Z,13.70
2019-04-28T09:54:53.644Z,13.42
2019-04-28T09:55:53.630Z,13.49
2019-04-28T09:56:56.979Z,13.60
2019-04-28T09:57:54.925Z,13.42
2019-04-28T09:58:53.597Z,13.63
2019-04-28T09:59:53.590Z,13.69
2019-04-28T10:00:53.578Z,13.69
2019-04-28T10:01:53.568Z,13.64
2019-04-28T10:02:53.557Z,13.48
2019-04-28T10:03:53.547Z,13.19
2019-04-28T10:04:53.535Z,12.95
2019-04-28T10:05:53.523Z,12.70
2019-04-28T10:06:53.528Z,12.46
2019-04-28T10:07:53.501Z,12.28
2019-04-28T10:08:53.489Z,12.16
2019-04-28T10:09:53.480Z,12.13
2019-04-28T10:10:53.468Z,12.07
2019-04-28T10:11:53.459Z,12.01
2019-04-28T10:12:53.449Z,11.82
2019-04-28T10:13:53.439Z,12.04
2019-04-28T10:14:53.432Z,12.07
2019-04-28T10:15:53.422Z,12.14
2019-04-28T10:16:53.404Z,12.35
2019-04-28T10:17:53.399Z,12.39
2019-04-28T10:18:53.410Z,12.47
2019-04-28T10:19:53.373Z,12.54
2019-04-28T10:20:53.363Z,12.78
2019-04-28T10:21:53.352Z,12.78
2019-04-28T10:22:53.345Z,12.93
2019-04-28T10:23:53.328Z,13.17
2019-04-28T10:24:53.321Z,13.23
2019-04-28T10:25:53.307Z,13.19
2019-04-28T10:26:53.296Z,13.00
2019-04-28T10:27:53.285Z,13.00
2019-04-28T10:28:53.274Z,12.90
2019-04-28T10:29:53.267Z,12.95
2019-04-28T10:30:53.254Z,12.97
2019-04-28T10:31:53.243Z,13.14
2019-04-28T10:32:53.232Z,13.07
2019-04-28T10:33:53.222Z,13.28
2019-04-28T10:34:54.980Z,13.55
2019-04-28T10:35:53.202Z,13.49
2019-04-28T10:36:53.188Z,13.54
2019-04-28T10:37:53.188Z,13.46
2019-04-28T10:38:53.169Z,13.28
2019-04-28T10:39:53.170Z,13.07
2019-04-28T10:40:53.147Z,13.05
2019-04-28T10:41:53.135Z,12.92
2019-04-28T10:42:53.125Z,12.65
2019-04-28T10:43:53.127Z,12.47
2019-04-28T10:44:53.104Z,12.34
2019-04-28T10:45:53.092Z,12.38
2019-04-28T10:46:53.081Z,12.37
2019-04-28T10:47:53.072Z,12.53
2019-04-28T10:48:53.067Z,12.79
2019-04-28T10:49:53.048Z,13.04
2019-04-28T10:50:53.039Z,13.52
2019-04-28T10:51:59.088Z,13.78
2019-04-28T10:52:54.016Z,14.04
2019-04-28T10:53:53.006Z,14.22
2019-04-28T10:54:52.998Z,14.47
2019-04-28T10:55:52.986Z,14.69
2019-04-28T10:56:52.974Z,14.96
2019-04-28T10:57:52.963Z,15.10
2019-04-28T10:58:52.953Z,15.32
2019-04-28T10:59:52.946Z,15.47
2019-04-28T11:00:52.932Z,15.47
2019-04-28T11:01:52.920Z,15.47
2019-04-28T11:02:52.911Z,15.32
2019-04-28T11:03:52.899Z,15.17
2019-04-28T11:04:52.888Z,15.09
2019-04-28T11:05:52.877Z,15.50
2019-04-28T11:06:52.868Z,15.75
2019-04-28T11:07:52.856Z,15.96
2019-04-28T11:08:52.845Z,16.27
2019-04-28T11:09:52.837Z,16.38
2019-04-28T11:10:52.824Z,16.61
2019-04-28T11:11:52.813Z,16.64
2019-04-28T11:12:52.806Z,16.60
2019-04-28T11:13:52.793Z,16.53
2019-04-28T11:14:52.781Z,16.57
2019-04-28T11:15:52.775Z,16.45
2019-04-28T11:16:52.761Z,16.86
2019-04-28T11:17:52.750Z,17.30
2019-04-28T11:18:52.763Z,17.59
2019-04-28T11:19:52.729Z,17.46
2019-04-28T11:20:52.720Z,17.82
2019-04-28T11:21:52.707Z,17.07
2019-04-28T11:22:52.696Z,16.04
2019-04-28T11:23:52.686Z,15.25
2019-04-28T11:24:52.683Z,14.98
2019-04-28T11:25:52.665Z,14.89
2019-04-28T11:26:52.655Z,14.70
2019-04-28T11:27:55.416Z,14.65
2019-04-28T11:28:52.634Z,14.81
2019-04-28T11:29:52.640Z,14.98
2019-04-28T11:30:52.611Z,15.69
2019-04-28T11:31:52.600Z,16.07
2019-04-28T11:32:52.592Z,16.61
2019-04-28T11:33:52.578Z,16.21
2019-04-28T11:34:52.570Z,15.89
2019-04-28T11:35:52.563Z,15.27
2019-04-28T11:36:52.547Z,14.70
2019-04-28T11:37:52.536Z,14.50
2019-04-28T11:38:52.529Z,14.35
2019-04-28T11:39:52.514Z,14.46
2019-04-28T11:40:52.505Z,14.65
2019-04-28T11:41:52.495Z,15.19
2019-04-28T11:42:52.482Z,15.19
2019-04-28T11:43:52.470Z,15.36
2019-04-28T11:44:52.464Z,15.84
2019-04-28T11:45:52.453Z,15.80
2019-04-28T11:46:52.447Z,15.75
2019-04-28T11:47:52.436Z,15.72
2019-04-28T11:48:52.421Z,15.80
2019-04-28T11:49:52.411Z,15.53
2019-04-28T11:50:52.399Z,15.46
2019-04-28T11:51:52.390Z,15.20
2019-04-28T11:52:52.379Z,14.99
2019-04-28T11:53:52.369Z,14.78
2019-04-28T11:54:52.355Z,14.50
2019-04-28T11:55:52.343Z,14.52
2019-04-28T11:56:52.335Z,14.42
2019-04-28T11:57:52.322Z,14.45
2019-04-28T11:58:52.317Z,14.61
2019-04-28T11:59:54.113Z,14.58
2019-04-28T12:00:52.290Z,14.37
2019-04-28T12:01:52.278Z,14.46
2019-04-28T12:02:52.268Z,14.37
2019-04-28T12:03:52.258Z,14.35
2019-04-28T12:04:52.247Z,14.28
2019-04-28T12:05:52.242Z,14.12
2019-04-28T12:06:52.229Z,13.87
2019-04-28T12:07:52.215Z,13.70
2019-04-28T12:08:52.203Z,13.91
2019-04-28T12:10:03.856Z,14.02
2019-04-28T12:10:53.180Z,13.91
2019-04-28T12:11:52.179Z,14.00
2019-04-28T12:12:52.166Z,13.95
2019-04-28T12:13:52.150Z,13.88
2019-04-28T12:14:52.138Z,13.63
2019-04-28T12:15:52.132Z,13.71
2019-04-28T12:16:52.121Z,13.73
2019-04-28T12:17:52.111Z,13.92
2019-04-28T12:18:52.098Z,13.77
2019-04-28T12:19:52.090Z,13.89
2019-04-28T12:20:52.075Z,13.89
2019-04-28T12:21:52.066Z,13.67
2019-04-28T12:22:52.055Z,13.79
2019-04-28T12:23:52.044Z,13.77
2019-04-28T12:24:52.034Z,13.63
2019-04-28T12:25:52.023Z,13.42
2019-04-28T12:26:52.011Z,13.15
2019-04-28T12:27:52.000Z,12.93
2019-04-28T12:28:51.990Z,12.97
2019-04-28T12:29:51.978Z,12.87
2019-04-28T12:30:51.970Z,12.90
2019-04-28T12:31:51.957Z,12.79
2019-04-28T12:32:51.947Z,12.79
2019-04-28T12:33:51.936Z,12.89
2019-04-28T12:34:51.926Z,12.83
2019-04-28T12:35:51.914Z,12.85
2019-04-28T12:36:51.911Z,12.79
2019-04-28T12:37:51.893Z,12.90
2019-04-28T12:38:51.882Z,13.00
2019-04-28T12:39:51.875Z,13.17
2019-04-28T12:40:51.864Z,13.22
2019-04-28T12:41:51.849Z,13.33
2019-04-28T12:42:51.839Z,13.26
2019-04-28T12:43:51.828Z,13.32
2019-04-28T12:44:51.818Z,13.42
2019-04-28T12:45:51.809Z,13.46
2019-04-28T12:46:51.803Z,13.51
2019-04-28T12:47:51.785Z,13.51
2019-04-28T12:48:51.774Z,13.46
2019-04-28T12:49:51.763Z,13.52
2019-04-28T12:50:51.755Z,13.66
2019-04-28T12:51:51.746Z,13.85
2019-04-28T12:52:51.733Z,14.04
2019-04-28T12:53:51.721Z,14.24
2019-04-28T12:54:51.711Z,14.18
2019-04-28T12:55:51.700Z,14.07
2019-04-28T12:56:51.691Z,14.04
2019-04-28T12:57:51.678Z,13.77
2019-04-28T12:58:51.666Z,13.84
2019-04-28T12:59:53.150Z,13.95
2019-04-28T13:00:51.646Z,13.88
2019-04-28T13:01:51.635Z,13.73